Event label	Optional label	Method/Device	Abbreviation	O2A Registry URI	Date/Time	Latitude	Longitude	Elevation	Date/Time end	Latitude end	Longitude end	Elevation end	Comment
M183-track		Underway cruise track measurements	CT		2022-07-13T08:00:00	37.73577	-25.66045		2022-08-09T07:59:59	47.75113	-52.29715		Ponta Delgada - St. John's
M183_0_Underway-2		EM122 multibeam echosounder	EM122	https://registry.o2a-data.de/items/7491	2022-07-13T14:05:12	38.42580	-26.06300	-3162	2022-07-28T15:44:09	57.50370	-32.29300		Event shows start/end point (date/time & coordinates) of first/last data record using Kongsberg EM 122 multibeam echosounder during cruise M183
M183_0_Underway-1		Acoustic Doppler Current Profiler, vessel-mounted	VMADCP		2022-07-14T11:50:00	42.35452	-27.08715	-3162	2022-07-15T15:50:00	47.34508	-28.48318		
M183_0_Underway-3		Thermosalinograph	TSG		2022-07-14T11:51:00	42.35936	-27.08845		2022-08-05T09:54:00	57.54452	-32.19252		event was not logged in DSHIP
M183_1-1	GeoB25101-1	Remote operated vehicle	ROV		2022-07-15T15:33:00	47.34508	-28.48313						
M183_2-1	GeoB25102-1	Gravity corer	GC		2022-07-16T11:55:00	50.39935	-29.36750						
M183_3-1	GeoB25103-1	ParaSound	PS		2022-07-18T09:57:00	58.05115	-31.45735	-1639	2022-07-19T06:28:00	58.18932	-31.37075	-1936	
M183_4-1	GeoB25104-1	CTD/Rosette	CTD-RO		2022-07-19T08:12:00	58.12265	-31.21500	-2171					
M183_5-1	GeoB25105-1	Heat-Flow probe	HF		2022-07-19T11:21:00	58.19027	-31.37338	-1938					
M183_5-2	GeoB25105-2	Heat-Flow probe	HF		2022-07-19T12:09:00	58.19213	-31.37738	-1939					
M183_5-3	GeoB25105-3	Heat-Flow probe	HF		2022-07-19T12:56:00	58.19440	-31.38218	-1924					
M183_5-4	GeoB25105-4	Heat-Flow probe	HF		2022-07-19T13:34:00	58.19628	-31.38617	-1915					
M183_5-5	GeoB25105-5	Heat-Flow probe	HF		2022-07-19T14:14:00	58.19858	-31.39085	-1908					
M183_5-6	GeoB25105-6	Heat-Flow probe	HF		2022-07-19T15:08:00	58.20113	-31.39598	-1914					
M183_5-7	GeoB25105-7	Heat-Flow probe	HF		2022-07-19T16:04:00	58.20463	-31.40332	-1912					
M183_5-8	GeoB25105-8	Heat-Flow probe	HF		2022-07-19T17:01:00	58.20793	-31.41007	-1906					
M183_5-9	GeoB25105-9	Heat-Flow probe	HF		2022-07-19T17:44:00	58.21037	-31.41493	-1902					
M183_5-10	GeoB25105-10	Heat-Flow probe	HF		2022-07-19T18:33:00	58.21337	-31.42108	-1907					
M183_6-1	GeoB25106-1	Gravity corer	GC		2022-07-19T20:13:00	58.20117	-31.39597	-1914					
M183_7-1	GeoB25107-1	ParaSound	PS		2022-07-19T23:27:00	58.16917	-31.02340	-1577	2022-07-20T06:25:00	58.37733	-31.22127	-1418	
M183_8-1	GeoB25108-1	Remote operated vehicle	ROV		2022-07-20T11:00:00	58.19613	-31.38612						
M183_9-1	GeoB25109-1	Gravity corer	GC		2022-07-20T17:19:00	58.19872	-31.39087	-1896	2022-07-20T17:57:00	58.19865	-31.39075	-1891	
M183_10-1	GeoB25110-1	Heat-Flow probe	HF		2022-07-20T20:36:00	58.24475	-31.00195	-1775					
M183_10-2	GeoB25110-2	Heat-Flow probe	HF		2022-07-20T21:49:00	58.24995	-31.01078	-1729					
M183_10-3	GeoB25110-3	Heat-Flow probe	HF		2022-07-20T22:33:00	58.25422	-31.01777	-1694					
M183_10-4	GeoB25110-4	Heat-Flow probe	HF		2022-07-20T23:33:00	58.25705	-31.02202	-1701					
M183_10-5	GeoB25110-5	Heat-Flow probe	HF		2022-07-21T00:28:00	58.26260	-31.03080	-1725					
M183_10-6	GeoB25110-6	Heat-Flow probe	HF		2022-07-21T01:19:00	58.26768	-31.03910	-1727					
M183_10-7	GeoB25110-7	Heat-Flow probe	HF		2022-07-21T02:21:00	58.27270	-31.04692	-1705					
M183_10-8	GeoB25110-8	Heat-Flow probe	HF		2022-07-21T03:14:00	58.27705	-31.05513	-1612					
M183_10-9	GeoB25110-9	Heat-Flow probe	HF		2022-07-21T04:37:00	58.28463	-31.06725	-1502					
M183_10-10	GeoB25110-10	Heat-Flow probe	HF		2022-07-21T05:34:00	58.28887	-31.07467	-1469					
M183_10-11	GeoB25110-11	Heat-Flow probe	HF		2022-07-21T06:30:00	58.29268	-31.08138	-1491					
M183_10-12	GeoB25110-12	Heat-Flow probe	HF		2022-07-21T07:26:00	58.29597	-31.08677	-1503					
M183_10-13	GeoB25110-13	Heat-Flow probe	HF		2022-07-21T08:15:00	58.29957	-31.09302	-1498					
M183_11-1	GeoB25111-1	Remote operated vehicle	ROV		2022-07-21T14:30:00	58.27302	-31.04837		2022-07-21T17:10:00	58.27773	-31.05800		
M183_12-1	GeoB25112-1	Gravity corer	GC		2022-07-21T19:41:00	58.28890	-31.07497	-1478					
M183_13-1	GeoB25113-1	ParaSound	PS		2022-07-22T03:13:00	57.56158	-32.12668	-1518	2022-07-22T13:34:00	57.47145	-32.24572	-1683	
M183_14-1	GeoB25114-1	Bottom lander	B_LANDER		2022-07-22T14:17:00	57.52415	-32.27080	-1847					
M183_15-1	GeoB25115-1	CTD/Rosette	CTD-RO		2022-07-22T16:47:00	57.52375	-32.27032	-1846					
M183_16-1	GeoB25116-1	Gravity corer	GC		2022-07-22T18:50:00	57.57395	-32.24657	-1575					
M183_17-1	GeoB25117-1	Heat-Flow probe	HF		2022-07-22T21:20:00	57.58368	-32.25777	-1710					
M183_17-2	GeoB25117-2	Heat-Flow probe	HF		2022-07-22T22:59:00	57.57810	-32.25053	-1595					
M183_17-3	GeoB25117-3	Heat-Flow probe	HF		2022-07-23T00:03:00	57.57363	-32.24535	-1578					
M183_17-4	GeoB25117-4	Heat-Flow probe	HF		2022-07-23T01:07:00	57.56668	-32.23692	-1714					
M183_17-5	GeoB25117-5	Heat-Flow probe	HF		2022-07-23T02:05:00	57.56297	-32.23238	-1725					
M183_17-6	GeoB25117-6	Heat-Flow probe	HF		2022-07-23T02:59:00	57.55858	-32.22693	-1725					
M183_17-7	GeoB25117-7	Heat-Flow probe	HF		2022-07-23T04:03:00	57.55375	-32.22108	-1715					
M183_17-8	GeoB25117-8	Heat-Flow probe	HF		2022-07-23T05:02:00	57.54785	-32.21412	-1762					
M183_17-9	GeoB25117-9	Heat-Flow probe	HF		2022-07-23T06:02:00	57.54292	-32.20805	-1786					
M183_17-10	GeoB25117-10	Heat-Flow probe	HF		2022-07-23T06:44:00	57.53927	-32.20338	-1811					
M183_17-11	GeoB25117-11	Heat-Flow probe	HF		2022-07-23T07:30:00	57.53607	-32.19968	-1800					
M183_17-12	GeoB25117-12	Heat-Flow probe	HF		2022-07-23T08:14:00	57.53337	-32.19637	-1812					
M183_18-1	GeoB25118-1	ParaSound	PS		2022-07-23T09:40:00	57.54653	-32.17073	-1678	2022-07-23T16:04:00	57.54720	-32.17038	-1739	
M183_19-1	GeoB25119-1	Gravity corer	GC		2022-07-23T17:16:00	57.54770	-32.17025	-1862					
M183_20-1	GeoB25120-1	Heat-Flow probe	HF		2022-07-23T19:24:00	57.55978	-32.16613	-1862					
M183_20-2	GeoB25120-2	Heat-Flow probe	HF		2022-07-23T20:26:00	57.56537	-32.17297	-1854					
M183_20-3	GeoB25120-3	Heat-Flow probe	HF		2022-07-23T21:27:00	57.57125	-32.18003	-1737					
M183_20-4	GeoB25120-4	Heat-Flow probe	HF		2022-07-23T22:08:00	57.57422	-32.18342	-1749					
M183_20-5	GeoB25120-5	Heat-Flow probe	HF		2022-07-23T23:19:00	57.58113	-32.19245	-1715					
M183_20-6	GeoB25120-6	Heat-Flow probe	HF		2022-07-24T00:47:00	57.58590	-32.19750	-1701					
M183_20-7	GeoB25120-7	Heat-Flow probe	HF		2022-07-24T01:34:00	57.58885	-32.20185	-1642					
M183_20-8	GeoB25120-8	Heat-Flow probe	HF		2022-07-24T02:16:00	57.59258	-32.20632	-1505					
M183_20-9	GeoB25120-9	Heat-Flow probe	HF		2022-07-24T02:56:00	57.59532	-32.20968	-1599					
M183_20-10	GeoB25120-10	Heat-Flow probe	HF		2022-07-24T03:46:00	57.59780	-32.21242	-1596					
M183_20-11	GeoB25120-11	Heat-Flow probe	HF		2022-07-24T04:29:00	57.60107	-32.21632	-1616					
M183_20-12	GeoB25120-12	Heat-Flow probe	HF		2022-07-24T05:24:00	57.60515	-32.22020	-1400					
M183_20-13	GeoB25120-13	Heat-Flow probe	HF		2022-07-24T05:57:00	57.60863	-32.21885	-1470					
M183_21-1	GeoB25121-1	Remote operated vehicle	ROV		2022-07-24T12:40:00	57.57797	-32.25032		2022-07-24T15:45:00	57.57557	-32.24682		
M183_21-2	GeoB25121-2	Claw sample	CLAW		2022-07-24T12:40:00	57.57758	-32.25012	-1592					Rock sample 1 (R1) pillow front, heading 90
M183_21-3	GeoB25121-3	Claw sample	CLAW		2022-07-24T13:30:00	57.57667	-32.24848	-1584					Rock sample 2 (R2), Talus field, heading 88
M183_21-4	GeoB25121-4	Claw sample	CLAW		2022-07-24T13:34:00	57.57667	-32.24848	-1584					Biota sample 1 (B1), sponge with rock, heading 88
M183_21-5	GeoB25121-5	Claw sample	CLAW		2022-07-24T14:44:00	57.57608	-32.24818	-1542					Biota sample 2 (B2), sponge, heading 128
M183_21-6	GeoB25121-6	Claw sample	CLAW		2022-07-24T14:49:00	57.57608	-32.24818	-1542					Rock sample 3 (R3), big rock on top of sponge, heading 128
M183_21-7	GeoB25121-7	Rotating corer	RC		2022-07-24T16:29:00	57.57473	-32.24652	-1561					Sediment samples 1 and 3 (S1, S3), pushcores 1 and 2, heading 84
M183_21-8	GeoB25121-8	Rotating corer	RC		2022-07-24T16:31:00	57.57473	-32.24652	-1561					Sediment samplews 2 and 4 (S2, S4), pushcores R1 and R2, heading 84, pore water sampling of push core R2 every 2 cm from 2.5 - 18.5 cm depth
M183_22-1	GeoB25122-1	Gravity corer	GC		2022-07-24T18:45:00	57.57333	-32.25258	-1576					
M183_23-1	GeoB25123-1	Heat-Flow probe	HF		2022-07-24T20:56:00	57.56187	-32.29313	-1544					
M183_23-2	GeoB25123-2	Heat-Flow probe	HF		2022-07-24T22:02:00	57.55237	-32.28180	-1691					
M183_23-3	GeoB25123-3	Heat-Flow probe	HF		2022-07-24T22:37:00	57.54807	-32.28007	-1491					
M183_23-4	GeoB25123-4	Heat-Flow probe	HF		2022-07-24T23:27:00	57.54355	-32.27120	-1606					
M183_23-5	GeoB25123-5	Heat-Flow probe	HF		2022-07-25T00:13:00	57.53755	-32.26363	-1791					
M183_23-6	GeoB25123-6	Heat-Flow probe	HF		2022-07-25T01:03:00	57.53362	-32.25907	-1779					
M183_23-7	GeoB25123-7	Heat-Flow probe	HF		2022-07-25T01:46:00	57.52860	-32.25175	-1796					
M183_23-8	GeoB25123-8	Heat-Flow probe	HF		2022-07-25T02:40:00	57.52392	-32.24710	-1809					
M183_23-9	GeoB25123-9	Heat-Flow probe	HF		2022-07-25T03:21:00	57.51970	-32.24202	-1843					
M183_23-10	GeoB25123-10	Heat-Flow probe	HF		2022-07-25T04:14:00	57.51575	-32.23715	-1841					
M183_23-11	GeoB25123-11	Heat-Flow probe	HF		2022-07-25T05:03:00	57.51137	-32.23183	-1842					
M183_23-12	GeoB25123-12	Heat-Flow probe	HF		2022-07-25T06:10:00	57.50443	-32.22040	-1585					
M183_23-13	GeoB25123-13	Heat-Flow probe	HF		2022-07-25T06:57:00	57.50907	-32.21093	-1632					
M183_24-2	GeoB25124-2	Claw sample	CLAW		2022-07-25T11:49:00	57.50170	-32.22060	-1600					Biota sample 1 (B1), yellow sponge, heading 190
M183_24-3	GeoB25124-3	Claw sample	CLAW		2022-07-25T12:03:00	57.50162	-32.22060	-1601					Rock sample 1 (R1), Rock front pillow front, heading 195
M183_24-1	GeoB25124-1	Remote operated vehicle	ROV		2022-07-25T12:15:00	57.50163	-32.22032		2022-07-25T16:39:00	57.49815	-32.21540		
M183_24-4	GeoB25124-4	Claw sample	CLAW		2022-07-25T13:10:00	57.50020	-32.21982	-1542					Biota sample 2 (B2), bulbous sponge with clots, heading 198
M183_24-5	GeoB25124-5	Claw sample	CLAW		2022-07-25T13:23:00	57.50032	-32.21982	-1541					Rock sample 2 (R2), rock from crest, heading 188
M183_24-7	GeoB25124-7	Rotating corer	RC		2022-07-25T14:06:00	57.49938	-32.21897	-1546					Sediment sample 2 (S2), 1, 1. lost and 2. lost, heading 166
M183_24-6	GeoB25124-6	Rotating corer	RC		2022-07-25T14:06:00	57.49938	-32.21897	-1546					Sediment sample 1 (S1), R1, partly lost, heading 166
M183_24-8	GeoB25124-8	Claw sample	CLAW		2022-07-25T14:21:00	57.49938	-32.21897	-1546					Biota sample 3 (B3), white sponge, heading 166
M183_24-9	GeoB25124-9	Claw sample	CLAW		2022-07-25T14:55:00	57.49932	-32.21740	-1457					Rock sample 3 (R3), rock from crest, heading 90
M183_24-10	GeoB25124-10	Claw sample	CLAW		2022-07-25T15:16:00	57.49935	-32.21698	-1461					Miscellaneous 1 (M1), Temp, heading 228
M183_24-11	GeoB25124-11	Rotating corer	RC		2022-07-25T15:22:00	57.49935	-32.21698	-1461					Sediment sample 3 (S3), R2, lost, heading 228
M183_24-12	GeoB25124-12	Rotating corer	RC		2022-07-25T15:25:00	57.49935	-32.21698	-1461					Sediment sample 4 (S4), 2, parts lost, heading 228
M183_24-13	GeoB25124-13	Rotating corer	RC		2022-07-25T15:39:00	57.49918	-32.21735	-1461					Sediment sample 5 (S%), R2, lost, heading 202
M183_24-14	GeoB25124-14	Claw sample	CLAW		2022-07-25T16:20:00	57.49925	-32.21592	-1466					Rock sample 4 (R4), 2, heading 120
M183_25-1	GeoB25125-1	Gravity corer	GC		2022-07-25T19:23:00	57.57433	-32.24698	-1566					
M183_26-1	GeoB25126-1	Heat-Flow probe	HF		2022-07-25T21:39:00	57.56145	-32.24302	-1640					
M183_26-2	GeoB25126-2	Heat-Flow probe	HF		2022-07-25T22:46:00	57.55363	-32.25245	-1734					
M183_26-3	GeoB25126-3	Heat-Flow probe	HF		2022-07-25T23:55:00	57.54575	-32.26022	-1768					
M183_26-4	GeoB25126-4	Heat-Flow probe	HF		2022-07-26T01:18:00	57.53222	-32.27532	-1841					
M183_26-5	GeoB25126-5	Heat-Flow probe	HF		2022-07-26T02:04:00	57.52693	-32.28203	-1811					
M183_26-6	GeoB25126-6	Heat-Flow probe	HF		2022-07-26T03:18:00	57.51235	-32.29522	-1624					
M183_26-7	GeoB25126-7	Heat-Flow probe	HF		2022-07-26T04:11:00	57.50830	-32.29047	-1676					
M183_26-8	GeoB25126-8	Heat-Flow probe	HF		2022-07-26T05:07:00	57.50203	-32.28233	-1819					
M183_26-9	GeoB25126-9	Heat-Flow probe	HF		2022-07-26T06:00:00	57.49737	-32.27688	-1812					
M183_26-10	GeoB25126-10	Heat-Flow probe	HF		2022-07-26T06:55:00	57.48993	-32.26793	-1881					
M183_27-1	GeoB25127-1	Remote operated vehicle	ROV		2022-07-26T11:11:00	57.54225	-32.27365		2022-07-26T16:39:00	57.54768	-32.27972		
M183_27-2	GeoB25127-2	Claw sample	CLAW		2022-07-26T12:17:00	57.54288	-32.27387	-1566					Rock sample (R1), rock next to sponge, heading 20
M183_27-3	GeoB25127-3	Claw sample	CLAW		2022-07-26T12:19:00	57.54288	-32.27387	-1566					Biota sample 1 (B1), sponge, heading 20
M183_27-4	GeoB25127-4	Claw sample	CLAW		2022-07-26T13:01:00	57.54200	-32.24107	-1549					Rock sample 2 (R2), pillow fragment, heading 327
M183_27-5	GeoB25127-5	Claw sample	CLAW		2022-07-26T13:17:00	57.54330	-32.27470	-1530					Bioata sample 2 (B2), vase-shaped sponge, heading 269
M183_27-6	GeoB25127-6	Claw sample	CLAW		2022-07-26T14:27:00	57.54565	-32.28115	-1497					Rock sample 3 (R3), gabbro, heading 309
M183_27-7	GeoB25127-7	Claw sample	CLAW		2022-07-26T15:09:00	57.54555	-32.28035	-1967					Miscellaneous 1 (M1), T-stick 3 min, heading 235
M183_27-8	GeoB25127-8	Rotating corer	RC		2022-07-26T15:20:00	57.54555	-32.28035	-1967					Sediment sample 1 (S1), R1, mixed, heading 235, pore water sampling of push core at 4, 8 and 12 cm depth
M183_27-9	GeoB25127-9	Rotating corer	RC		2022-07-26T15:22:00	57.54625	-32.27987	-1967					Sediment sample 2 (S2), 1. lost and 2. lost, heading 235
M183_27-10	GeoB25127-10	Rotating corer	RC		2022-07-26T16:23:00	57.54625	-32.27983	-1490					Sediment sample 3 (S3), R2, ok, heading 173, pore water sampling of push core at 1, 5 and 9 cm depth
M183_27-11	GeoB25127-11	Rotating corer	RC		2022-07-26T16:26:00	57.54625	-32.27983	-1490					Sediment sample 4 (S4), 2, lost, heading 173
M183_28-1	GeoB25128-1	Gravity corer	GC		2022-07-26T19:14:00	57.57820	-32.25030	-1600					
M183_29-1	GeoB25129-1	Heat-Flow probe	HF		2022-07-26T21:20:00	57.56073	-32.26083	-1642					
M183_29-2	GeoB25129-2	Heat-Flow probe	HF		2022-07-26T22:16:00	57.55772	-32.25718	-1688					
M183_29-3	GeoB25129-3	Heat-Flow probe	HF		2022-07-26T23:15:00	57.55172	-32.24997	-1750					
M183_29-4	GeoB25129-4	Heat-Flow probe	HF		2022-07-26T23:53:00	57.54727	-32.24457	-1759					
M183_29-5	GeoB25129-5	Heat-Flow probe	HF		2022-07-27T00:46:00	57.54248	-32.23875	-1766					
M183_29-7	GeoB25129-6	Heat-Flow probe	HF		2022-07-27T01:37:00	57.53660	-32.23165	-1803					
M183_29-8	GeoB25129-7	Heat-Flow probe	HF		2022-07-27T02:31:00	57.53085	-32.22458	-1832					
M183_29-9	GeoB25129-8	Heat-Flow probe	HF		2022-07-27T03:26:00	57.52627	-32.21902	-1840					
M183_29-10	GeoB25129-9	Heat-Flow probe	HF		2022-07-27T04:24:00	57.52187	-32.21365	-1837					
M183_29-11	GeoB25129-10	Heat-Flow probe	HF		2022-07-27T05:29:00	57.51442	-32.20448	-1620					
M183_29-12	GeoB25129-11	Heat-Flow probe	HF		2022-07-27T06:32:00	57.52117	-32.19810	-1682					
M183_29-13	GeoB25129-12	Heat-Flow probe	HF		2022-07-27T07:10:00	57.52700	-32.19305	-1732					
M183_30-1	GeoB25130-1	Remote operated vehicle	ROV		2022-07-27T11:31:00	57.55820	-32.26042		2022-07-27T16:43:00	57.55903	-32.26012		
M183_30-2	GeoB25130-2	Claw sample	CLAW		2022-07-27T13:00:00	57.56137	-32.26133	-1591					Rock sample 1 (R1), lava from flow front, heading 315
M183_30-3	GeoB25130-3	Claw sample	CLAW		2022-07-27T13:22:00	57.56155	-32.26025	-1581					Biota sample 1 (B1), pinkish white floaty sponge,heading 338, sample lost while diving up
M183_30-4	GeoB25130-4	Claw sample	CLAW		2022-07-27T16:14:00	57.55945	-32.25995	-1665					Biota sample 2 (B2), white sponge, heading 338
M183_30-5	GeoB25130-5	Claw sample	CLAW		2022-07-27T16:22:00	57.55917	-32.25987	-1667					Miscellaneous sample 1 (M1), T-stick 2.5 min, heading 340
M183_30-6	GeoB25130-6	Rotating corer	RC		2022-07-27T16:30:00	57.55917	-32.25250	-1669					Sediment sample 1 (S1), R1, good core, pushcore porewater sampling every 2 cm from 1.5 cm to 25.5 cm, heading 007
M183_30-7	GeoB25130-7	Rotating corer	RC		2022-07-27T16:32:00	57.55917	-32.25250	-1669					Sediment sample 2 (S2), 1, good core, heading 007
M183_31-1	GeoB25131-1	ParaSound	PS		2022-07-27T19:12:00	57.53452	-32.23145	-1811	2022-07-28T15:27:00	57.49807	-32.32200	-1519	
M183_32-1	GeoB25132-1	CTD/Rosette	CTD-RO		2022-07-28T16:47:00	57.52398	-32.27033	-1842					
M183_33-1	GeoB25133-1	Gravity corer	GC		2022-07-28T18:27:00	57.54825	-32.28005	-1493					
M183_34-1	GeoB25134-1	Heat-Flow probe	HF		2022-07-28T20:31:00	57.55230	-32.25037	-1747					
M183_34-2	GeoB25134-2	Heat-Flow probe	HF		2022-07-28T21:27:00	57.54393	-32.26067	-1775					
M183_34-3	GeoB25134-3	Heat-Flow probe	HF		2022-07-28T22:42:00	57.54018	-32.25390	-1763					
M183_34-4	GeoB25134-4	Heat-Flow probe	HF		2022-07-29T00:01:00	57.53563	-32.24625	-1771					
M183_34-5	GeoB25134-5	Heat-Flow probe	HF		2022-07-29T01:09:00	57.53187	-32.23975	-1799					
M183_34-6	GeoB25134-6	Heat-Flow probe	HF		2022-07-29T02:03:00	57.52970	-32.23378	-1825					
M183_34-7	GeoB25134-7	Heat-Flow probe	HF		2022-07-29T02:52:00	57.52787	-32.22878	-1835					
M183_34-8	GeoB25134-8	Heat-Flow probe	HF		2022-07-29T03:41:00	57.52415	-32.22818	-1840					
M183_34-9	GeoB25134-9	Heat-Flow probe	HF		2022-07-29T04:03:00	57.52282	-32.22800	-1842					
M183_34-10	GeoB25134-10	Heat-Flow probe	HF		2022-07-29T04:34:00	57.52160	-32.22783	-1842					
M183_34-11	GeoB25134-11	Heat-Flow probe	HF		2022-07-29T04:57:00	57.52008	-32.22763	-1845					
M183_34-12	GeoB25134-12	Heat-Flow probe	HF		2022-07-29T05:28:00	57.51915	-32.22757	-1843					
M183_34-13	GeoB25134-13	Heat-Flow probe	HF		2022-07-29T05:51:00	57.51782	-32.22725	-1842					
M183_34-14	GeoB25134-14	Heat-Flow probe	HF		2022-07-29T06:26:00	57.51618	-32.22710	-1841					
M183_34-15	GeoB25134-15	Heat-Flow probe	HF		2022-07-29T07:08:00	57.51788	-32.22005	-1838					
M183_35-1	GeoB25135-1	CTD/Rosette	CTD-RO		2022-07-29T09:20:00	57.54398	-32.22573	-1772					
M183_36-1	GeoB25136-1	Remote operated vehicle	ROV		2022-07-30T12:46:00	57.57288	-32.25295		2022-07-30T16:40:00	57.57798	-32.25027		
M183_36-2	GeoB25136-2	Claw sample	CLAW		2022-07-30T13:24:00	57.57345	-32.25222	-1599					Miscellaneous 1 (M1), T-stick, 3 min, heading 45
M183_36-3	GeoB25136-3	Claw sample	CLAW		2022-07-30T13:37:00	57.57348	-32.25218	-1600					Miscellaneous 2 (M2), T-stick, heading 46
M183_36-4	GeoB25136-4	Claw sample	CLAW		2022-07-30T15:40:00	57.57818	-32.25025	-1575					Miscellaneous 3 (M3), T-stick, heading 45
M183_36-5	GeoB25136-5	Claw sample	CLAW		2022-07-30T15:50:00	57.57825	-32.26648	-1574					Miscellaneous 4 (M4), T-stick, heading 40
M183_36-6	GeoB25136-6	Claw sample	CLAW		2022-07-30T16:01:00	57.57825	-32.25025	-1574					Miscellaneous 5 (M5), T-stick, heading 16
M183_36-7	GeoB25136-7	Rotating corer	RC		2022-07-30T16:07:00	57.57825	-32.25025	-1574					Sediment sample (S1), R1, full, heading 16, pore water sampling at 3,5,7,11,13,15,17 and 21 cm depth
M183_36-8	GeoB25136-8	Rotating corer	RC		2022-07-30T16:08:00	57.57825	-32.25025	-1574					Sediment sample (S2), 2, full, heading 16, sediment sampling every 2 cm from 0-22 cm
M183_36-9	GeoB25136-9	Claw sample	CLAW		2022-07-30T16:28:00	57.57860	-32.25033	-1569					Miscellaneous sample 6 (M6), T-stick, heading 347
M183_37-1	GeoB25137-1	Gravity corer	GC		2022-07-30T19:39:00	57.54777	-32.27965	-1489					
M183_38-1	GeoB25138-1	Heat-Flow probe	HF		2022-07-30T21:35:00	57.55860	-32.27342	-1734					
M183_38-2	GeoB25138-2	Heat-Flow probe	HF		2022-07-30T22:40:00	57.56548	-32.26663	-1782					
M183_38-3	GeoB25138-3	Heat-Flow probe	HF		2022-07-31T00:01:00	57.57240	-32.25965	-1765					
M183_38-4	GeoB25138-4	Heat-Flow probe	HF		2022-07-31T00:39:00	57.57342	-32.25268	-1578					
M183_38-5	GeoB25138-5	Heat-Flow probe	HF		2022-07-31T02:05:00	57.58430	-32.24252	-1540					
M183_38-6	GeoB25138-6	Heat-Flow probe	HF		2022-07-31T03:13:00	57.59167	-32.23590	-1545					
M183_38-7	GeoB25138-7	Heat-Flow probe	HF		2022-07-31T04:19:00	57.60138	-32.23253	-1719					
M183_38-8	GeoB25138-8	Heat-Flow probe	HF		2022-07-31T05:28:00	57.59462	-32.22383	-1562					
M183_38-9	GeoB25138-9	Heat-Flow probe	HF		2022-07-31T06:13:00	57.59038	-32.21912	-1570					
M183_38-10	GeoB25138-10	Heat-Flow probe	HF		2022-07-31T07:10:00	57.58577	-32.21543	-1634					
M183_39-2	GeoB25139-2	Claw sample	CLAW		2022-07-31T11:54:00	57.54872	-32.28100	-1500					Biota sample 1 (B1), corals off vertical escapement, heading 150
M183_39-3	GeoB25139-3	Claw sample	CLAW		2022-07-31T12:13:00	57.54877	-32.28105	-1494					Rock sample 1 (R1), rock off flow front, heading 140
M183_39-1	GeoB25139-1	Remote operated vehicle	ROV		2022-07-31T12:15:00	57.54907	-32.28087		2022-07-31T16:50:00	57.54747	-32.27687		
M183_39-4	GeoB25139-4	Claw sample	CLAW		2022-07-31T12:34:00	57.54828	-32.28030	-1489					Biota sample 2 (B2), Zipfelmützen-Schwamm, heading 137
M183_39-5	GeoB25139-5	Claw sample	CLAW		2022-07-31T13:42:00	57.54838	-32.27953	-1476					Miscellaneous sample 1 (M1), T-stick 3 min, 1st attempt abandoned after ~ 40 sec. and 2nd attempt left in botoom between 13:42 and 13:47, heading 351
M183_39-6	GeoB25139-6	Claw sample	CLAW		2022-07-31T13:59:00	57.54835	-32.27958	-1482					Miscelleous sample 2 (M2), T-stick 3 min, heading 26
M183_39-7	GeoB25139-7	Claw sample	CLAW		2022-07-31T14:09:00	57.54828	-32.27973	-1484					Miscellaneous sample 3 (M3), T-stick 3 min, heading 39
M183_39-8	GeoB25139-8	Claw sample	CLAW		2022-07-31T14:16:00	57.54822	-32.27983	-1485					Miscellaneous sample 4 (M4), T-stick 3 min, heading 40
M183_39-9	GeoB25139-9	Claw sample	CLAW		2022-07-31T14:23:00	57.54815	-32.27993	-1487					Miscellaneous sample 5 (M5), T-stick 3 min, heading 40
M183_39-10	GeoB25139-10	Claw sample	CLAW		2022-07-31T14:32:00	57.54808	-32.28003	-1488					Miscellanous sample 6 (M6), T-stick 3 min, heading 40
M183_39-11	GeoB25139-11	Claw sample	CLAW		2022-07-31T14:40:00	57.54802	-32.28015	-1490					Miscellanous sample 7 (M7), T-stick 4 min, heading 40
M183_39-12	GeoB25139-12	Claw sample	CLAW		2022-07-31T14:50:00	57.54797	-32.27988	-1488					Miscellanous sample 8 (M8), T-stick 3 min, heading 95
M183_39-13	GeoB25139-13	Rotating corer	RC		2022-07-31T14:54:00	57.54797	-32.27988	-1488					Sediment sample 1 (S1), R2, good, heading 95
M183_39-14	GeoB25139-14	Claw sample	CLAW		2022-07-31T15:06:00	57.54797	-32.27988	-1488					Biota sample 3 (B3), Zipfelmütze groß, heading 95
M183_39-15	GeoB25139-15	Claw sample	CLAW		2022-07-31T15:36:00	57.54763	-32.27758	-1481					Rock sample 2 (R2), heading 71
M183_39-16	GeoB25139-16	Claw sample	CLAW		2022-07-31T15:52:00	57.54743	-32.27640	-1463					Miscellanous sample 9 (M9), T-stick 3 min, heading 103
M183_39-17	GeoB25139-17	Claw sample	CLAW		2022-07-31T16:00:00	57.54747	-32.27648	-1462					Miscellanous sample 10 (M10), T-stick 3 min, heading 103
M183_39-18	GeoB25139-18	Claw sample	CLAW		2022-07-31T16:12:00	57.54745	-32.27658	-1462					Miscellanous sample 11 (M11), T-stick 3 min, heading 100
M183_39-19	GeoB25139-19	Claw sample	CLAW		2022-07-31T16:23:00	57.54747	-32.27673	-1460					Miscellanous sample 12 (M12), T-stick 3 min, heading 280
M183_39-20	GeoB25139-20	Rotating corer	RC		2022-07-31T16:38:00	57.54747	-32.27673	-1460					Sediememt sample 2 (S2), R1, good, heading 280
M183_40-1	GeoB25140-1	Gravity corer	GC		2022-07-31T19:27:00	57.50838	-32.20918	-1629					
M183_41-2	GeoB25141-2	Heat-Flow probe	HF		2022-07-31T23:25:00	57.57595	-32.21630	-1652					
M183_41-1	GeoB25141-1	Heat-Flow probe	HF		2022-08-01T00:34:00	57.56582	-32.20492	-1700					
M183_41-3	GeoB25141-3	Heat-Flow probe	HF		2022-08-01T00:34:00	57.56582	-32.20492	-1700					
M183_41-4	GeoB25141-4	Heat-Flow probe	HF		2022-08-01T01:31:00	57.55823	-32.19560	-1802					
M183_41-5	GeoB25141-5	Heat-Flow probe	HF		2022-08-01T02:27:00	57.55283	-32.18903	-1808					
M183_41-6	GeoB25141-6	Heat-Flow probe	HF		2022-08-01T03:16:00	57.54637	-32.18122	-1848					
M183_41-7	GeoB25141-7	Heat-Flow probe	HF		2022-08-01T04:11:00	57.54350	-32.16907	-1608					
M183_41-8	GeoB25141-8	Heat-Flow probe	HF		2022-08-01T06:04:00	57.51677	-32.16107	-1624					
M183_41-9	GeoB25141-9	Heat-Flow probe	HF		2022-08-01T06:49:00	57.51425	-32.15770	-1631					
M183_42-2	GeoB25142-2	Claw sample	CLAW		2022-08-01T11:36:00	57.52972	-32.24710	-1745					Miscellaneous sample 1 (M1), T-stick 5 min, heading 50
M183_42-1	GeoB25142-1	Remote operated vehicle	ROV		2022-08-01T12:01:00	57.52987	-32.24685		2022-08-01T14:06:00	57.53035	-32.24700		
M183_42-3	GeoB25142-3	Claw sample	CLAW		2022-08-01T12:34:00	57.52883	-32.24633	-1754					Miscellaneous sample 2 (M2), T-stick 5 min, heading 16
M183_42-5	GeoB25142-5	Claw sample	CLAW		2022-08-01T13:37:00	57.53015	-32.24690	-1737					Miscellaneous sample 4 (M4), T-stick 5 min, heading 43
M183_42-6	GeoB25142-6	Rotating corer	RC		2022-08-01T13:45:00	57.53015	-32.24695	-1737					Sediment sample 1 (S1), R1, at Fuchsbau, good, heading 43
M183_42-7	GeoB25142-7	Rotating corer	RC		2022-08-01T13:47:00	57.53015	-32.24695	-1737					Sediment sample 2 (S2), 2, at Fuchsbau, good, heading 43
M183_43-1	GeoB25143-1	Gravity corer	GC		2022-08-01T16:44:00	57.52962	-32.24693						
M183_44-1	GeoB25144-1	Heat-Flow probe	HF		2022-08-01T18:45:00	57.52958	-32.24693	-1753					
M183_44-2	GeoB25144-2	Heat-Flow probe	HF		2022-08-01T20:28:00	57.52527	-32.28018	-1841					
M183_44-3	GeoB25144-3	Heat-Flow probe	HF		2022-08-01T21:39:00	57.51847	-32.27202	-1846					
M183_44-4	GeoB25144-4	Heat-Flow probe	HF		2022-08-01T22:43:00	57.51168	-32.26377	-1848					
M183_44-5	GeoB25144-5	Heat-Flow probe	HF		2022-08-01T23:30:00	57.50765	-32.25868	-1747					
M183_44-6	GeoB25144-6	Heat-Flow probe	HF		2022-08-02T00:27:00	57.50258	-32.25283	-1794					
M183_44-7	GeoB25144-7	Heat-Flow probe	HF		2022-08-02T01:14:00	57.49760	-32.24680	-1880					
M183_44-8	GeoB25144-8	Heat-Flow probe	HF		2022-08-02T02:05:00	57.49460	-32.24278	-1885					
M183_44-9	GeoB25144-9	Heat-Flow probe	HF		2022-08-02T03:28:00	57.48628	-32.22812	-1640					
M183_44-10	GeoB25144-10	Heat-Flow probe	HF		2022-08-02T05:04:00	57.50368	-32.21823	-1616					
M183_44-11	GeoB25144-11	Heat-Flow probe	HF		2022-08-02T06:48:00	57.52442	-32.20520	-1836					
M183_44-12	GeoB25144-12	Heat-Flow probe	HF		2022-08-02T07:43:00	57.52880	-32.20010	-1828					
M183_45-1	GeoB25145-1	CTD/Rosette	CTD-RO		2022-08-02T09:59:00	57.56595	-32.17168	-1855					
M183_46-1	GeoB25146-1	Gravity corer	GC		2022-08-02T20:15:00	57.51918	-32.22728	-1843					
M183_47-1	GeoB25147-1	Heat-Flow probe	HF		2022-08-02T22:54:00	57.55382	-32.23637	-1745					
M183_47-2	GeoB25147-2	Heat-Flow probe	HF		2022-08-02T23:46:00	57.54925	-32.23148	-1741					
M183_47-3	GeoB25147-3	Heat-Flow probe	HF		2022-08-03T00:46:00	57.54270	-32.22358	-1777					
M183_47-4	GeoB25147-4	Heat-Flow probe	HF		2022-08-03T01:52:00	57.53558	-32.21463	-1822					
M183_47-5	GeoB25147-5	Heat-Flow probe	HF		2022-08-03T02:52:00	57.52988	-32.20820	-1812					
M183_47-6	GeoB25147-6	Heat-Flow probe	HF		2022-08-03T04:47:00	57.50360	-32.23867	-1830					
M183_47-7	GeoB25147-7	Heat-Flow probe	HF		2022-08-03T05:56:00	57.51005	-32.24615	-1809					
M183_48-1	GeoB25148-1	Bottom lander	B_LANDER		2022-08-03T07:20:00	57.51988	-32.27440	-1843					
M183_49-1	GeoB25149-1	CTD/Rosette	CTD-RO		2022-08-03T09:56:00	57.54403	-32.18130	-1859					
M183_50-1	GeoB25150-1	Gravity corer	GC		2022-08-03T18:00:00	57.55342	-32.25233	-1725					
M183_51-1	GeoB25151-1	Gravity corer	GC		2022-08-03T19:57:00	57.54813	-32.27965	-1500					
M183_52-1	GeoB25152-1	Heat-Flow probe	HF		2022-08-03T22:32:00	57.51848	-32.25575	-1843					
M183_52-2	GeoB25152-2	Heat-Flow probe	HF		2022-08-03T23:26:00	57.52265	-32.26095	-1837					
M183_52-3	GeoB25152-3	Heat-Flow probe	HF		2022-08-04T00:12:00	57.52708	-32.26663	-1832					
M183_52-4	GeoB25152-4	Heat-Flow probe	HF		2022-08-04T01:44:00	57.51903	-32.28273	-1835					
M183_52-5	GeoB25152-5	Heat-Flow probe	HF		2022-08-04T02:48:00	57.50998	-32.27668	-1813					
M183_52-6	GeoB25152-6	Heat-Flow probe	HF		2022-08-04T03:52:00	57.50357	-32.26895	-1840					Ausfall der Zentralhydraulik
M183_53-1	GeoB25153-1	Remote operated vehicle	ROV		2022-08-04T13:39:00	57.55735	-32.25658		2022-08-04T14:57:00	57.55860	-32.25667		
M183_53-2	GeoB25153-3	Claw sample	CLAW		2022-08-04T14:42:00	57.55848	-32.25653	-1685					bT-stick (M2), temperature measurement near outcrop, heading 352
M183_36-10	GeoB25136-10	Rotating corer	RC			57.57860	-32.25033	-1569					Sediment sample 3 (S3), R2, loose lit (lost), heading 347
